Time;durP1;ratioP1;P1;durP2;ratioP2;P2;SDS_P1;SDS_P2;PMS_P1;PMS_P2;Temp;Humidity;BMP_temperature;BMP_pressure;BME280_temperature;BME280_humidity;BME280_pressure;Samples;Min_cycle;Max_cycle;Signal;HPM_P1;HPM_P2
2022/08/20 00:01:11;;;;;;;81.63;30.73;;;17.80;74.70;;;13.61;100.00;95746.03;4935863;28;20061;-47
2022/08/20 00:03:43;;;;;;;72.05;28.67;;;17.80;74.80;;;13.58;100.00;95741.22;4953089;28;20034;-46
2022/08/20 00:06:19;;;;;;;74.88;29.65;;;17.80;74.90;;;13.56;100.00;95740.69;4953590;28;20572;-46
2022/08/20 00:08:46;;;;;;;75.13;29.27;;;17.70;74.90;;;13.54;100.00;95743.66;4946804;28;20432;-46
2022/08/20 00:11:27;;;;;;;90.32;30.65;;;17.70;74.80;;;13.52;100.00;95732.44;4953227;28;20489;-48
2022/08/20 00:14:03;;;;;;;88.55;28.10;;;17.70;75.00;;;13.47;100.00;95729.78;4934515;28;20034;-46
2022/08/20 00:16:35;;;;;;;85.45;29.15;;;17.70;75.00;;;13.47;100.00;95737.03;4955267;28;20026;-46
2022/08/20 00:19:10;;;;;;;86.70;30.25;;;17.60;75.00;;;13.47;100.00;95737.81;4955225;28;20034;-46
2022/08/20 00:21:37;;;;;;;78.82;29.50;;;17.60;75.20;;;13.49;100.00;95734.88;4972606;28;20083;-46
2022/08/20 00:24:04;;;;;;;79.93;28.50;;;17.60;75.20;;;13.47;100.00;95735.13;4938576;28;20050;-46
2022/08/20 00:26:30;;;;;;;77.75;28.83;;;17.60;75.20;;;13.46;100.00;95733.53;4955153;28;20388;-48
2022/08/20 00:28:56;;;;;;;79.35;30.55;;;17.50;75.20;;;13.45;100.00;95744.53;4954895;28;20076;-47
2022/08/20 00:31:25;;;;;;;86.28;31.42;;;17.60;75.40;;;13.46;100.00;95735.44;4972370;28;20030;-46
2022/08/20 00:33:53;;;;;;;77.00;29.67;;;17.50;75.50;;;13.47;100.00;95737.81;4954735;28;20037;-47
2022/08/20 00:36:37;;;;;;;71.43;28.40;;;17.50;75.50;;;13.47;100.00;95737.03;4971931;28;20034;-48
2022/08/20 00:39:06;;;;;;;74.40;27.38;;;17.50;75.60;;;13.41;100.00;95734.41;4962855;28;20034;-49
2022/08/20 00:41:44;;;;;;;77.15;27.45;;;17.50;75.40;;;13.39;100.00;95741.91;4935556;28;20042;-47
2022/08/20 00:44:22;;;;;;;66.65;25.60;;;17.50;75.50;;;13.36;100.00;95737.09;4934486;28;20046;-46
2022/08/20 00:46:51;;;;;;;65.85;24.80;;;17.50;75.60;;;13.33;100.00;95740.31;4935266;28;20061;-46
2022/08/20 00:49:28;;;;;;;64.32;25.95;;;17.40;75.40;;;13.29;100.00;95741.19;4951455;28;20606;-47
2022/08/20 00:52:30;;;;;;;69.45;26.48;;;17.40;75.50;;;13.26;100.00;95752.44;4910003;29;20030;-47
2022/08/20 00:55:00;;;;;;;77.93;28.73;;;17.40;75.40;;;13.25;100.00;95743.56;4913161;28;20042;-46
2022/08/20 00:57:42;;;;;;;70.63;27.00;;;17.40;75.50;;;13.24;100.00;95749.19;4932200;28;20034;-50
2022/08/20 01:00:28;;;;;;;75.32;25.63;;;17.40;75.60;;;13.25;100.00;95745.47;4947992;28;20428;-48
2022/08/20 01:02:59;;;;;;;70.18;26.33;;;17.40;75.70;;;13.20;100.00;95744.41;4986880;28;20100;-48
2022/08/20 01:05:27;;;;;;;72.30;26.67;;;17.40;75.50;;;13.20;100.00;95752.41;4957762;28;20027;-47
2022/08/20 01:07:54;;;;;;;63.65;25.70;;;17.30;75.40;;;13.17;100.00;95754.84;4941871;28;20030;-50
2022/08/20 01:10:31;;;;;;;90.45;31.20;;;17.30;75.50;;;13.13;100.00;95751.94;4951616;28;20045;-46
2022/08/20 01:12:58;;;;;;;89.15;30.23;;;17.30;75.70;;;13.16;100.00;95747.88;4955272;28;20595;-47
2022/08/20 01:15:30;;;;;;;75.57;29.13;;;17.30;75.60;;;13.20;100.00;95744.41;4932691;28;20030;-46
2022/08/20 01:18:00;;;;;;;78.70;27.90;;;17.30;75.90;;;13.20;100.00;95743.59;4950864;28;20054;-45
2022/08/20 01:21:08;;;;;;;75.35;29.00;;;17.30;75.80;;;13.24;100.00;95752.66;4957201;28;20718;-46
2022/08/20 01:24:01;;;;;;;66.00;25.95;;;17.30;76.00;;;13.23;100.00;95748.41;4990481;28;20104;-46
2022/08/20 01:26:44;;;;;;;;;;;17.30;76.00;;;13.21;100.00;95753.22;4973621;28;20030;-48
2022/08/20 01:29:30;;;;;;;62.58;25.80;;;17.30;75.50;;;13.16;100.00;95748.72;4973626;28;19919;-50
2022/08/20 01:32:04;;;;;;;64.22;23.60;;;17.30;75.50;;;13.12;100.00;95742.28;4974402;28;20045;-46
2022/08/20 01:34:33;;;;;;;71.68;26.17;;;17.30;75.50;;;13.11;100.00;95745.25;4990514;28;20040;-46
2022/08/20 01:36:59;;;;;;;67.53;24.08;;;17.30;75.50;;;13.13;100.00;95753.78;4990793;28;20029;-46
2022/08/20 01:39:35;;;;;;;57.58;24.52;;;17.30;75.60;;;13.11;100.00;95754.06;4973304;28;20030;-47
2022/08/20 01:42:16;;;;;;;62.90;25.15;;;17.30;75.70;;;13.11;100.00;95753.28;4957550;28;20036;-46
2022/08/20 01:44:46;;;;;;;61.03;24.27;;;17.30;75.60;;;13.07;100.00;95755.72;4972889;28;20038;-46
2022/08/20 01:47:31;;;;;;;74.72;27.15;;;17.30;75.60;;;13.07;100.00;95761.06;4991008;28;20074;-46
2022/08/20 01:50:23;;;;;;;79.03;28.00;;;17.30;75.70;;;13.07;100.00;95758.38;4973644;28;20389;-46
2022/08/20 01:53:29;;;;;;;75.65;27.35;;;17.20;75.80;;;13.09;100.00;95763.44;4965537;28;20047;-46
2022/08/20 01:55:54;;;;;;;81.47;27.30;;;17.20;75.80;;;13.06;100.00;95766.66;4983235;28;20052;-46
2022/08/20 01:58:20;;;;;;;87.07;29.65;;;17.20;75.70;;;13.08;100.00;95772.53;4971739;28;20437;-46
2022/08/20 02:00:52;;;;;;;80.07;28.45;;;17.20;75.90;;;13.08;100.00;95768.00;4954216;28;20036;-46
2022/08/20 02:03:22;;;;;;;78.93;28.60;;;17.20;76.10;;;13.12;100.00;95770.91;4969764;28;20041;-46
2022/08/20 02:05:49;;;;;;;82.72;27.92;;;17.20;76.10;;;13.14;100.00;95766.91;4928897;28;20039;-48
2022/08/20 02:08:14;;;;;;;78.53;27.48;;;17.30;76.20;;;13.16;100.00;95769.28;4937261;28;20027;-46
2022/08/20 02:10:40;;;;;;;82.35;30.63;;;17.20;76.10;;;13.18;100.00;95765.25;4938045;28;20508;-47
2022/08/20 02:13:08;;;;;;;89.57;31.30;;;17.30;76.20;;;13.23;100.00;95761.78;4958580;28;20533;-46
2022/08/20 02:15:43;;;;;;;84.57;30.52;;;17.40;76.30;;;13.24;100.00;95758.00;4955444;28;20030;-46
2022/08/20 02:18:15;;;;;;;78.30;28.95;;;17.40;76.30;;;13.29;100.00;95766.03;4949464;28;20025;-46
2022/08/20 02:20:47;;;;;;;79.22;27.77;;;17.40;76.40;;;13.29;100.00;95768.72;4957415;28;20018;-46
2022/08/20 02:23:15;;;;;;;78.10;28.15;;;17.40;76.30;;;13.31;100.00;95763.06;4957447;28;20034;-46
2022/08/20 02:25:46;;;;;;;76.53;27.30;;;17.40;76.20;;;13.30;100.00;95764.97;4957462;28;20482;-49
2022/08/20 02:28:19;;;;;;;72.22;27.42;;;17.40;76.20;;;13.31;100.00;95763.88;4957835;28;20034;-46
2022/08/20 02:30:52;;;;;;;74.78;25.85;;;17.40;76.20;;;13.33;100.00;95747.56;4957735;28;20050;-46
2022/08/20 02:33:21;;;;;;;;;;;17.50;76.30;;;13.34;100.00;95749.94;4941642;28;20558;-50
2022/08/20 02:35:50;;;;;;;69.10;25.35;;;17.40;75.80;;;13.34;100.00;95749.94;4974560;28;19913;-48
2022/08/20 02:38:18;;;;;;;65.30;25.30;;;17.40;75.80;;;13.34;100.00;95749.94;4957005;28;20022;-47
2022/08/20 02:40:48;;;;;;;63.15;24.60;;;17.40;75.80;;;13.35;100.00;95748.06;4956772;28;20088;-45
2022/08/20 02:43:17;;;;;;;61.40;24.50;;;17.40;76.00;;;13.35;100.00;95742.72;4974128;28;20046;-48
2022/08/20 02:45:43;;;;;;;58.08;22.73;;;17.40;76.00;;;13.35;100.00;95740.88;4957434;28;20029;-46
2022/08/20 02:48:21;;;;;;;54.28;22.30;;;17.40;76.00;;;13.34;100.00;95743.78;4974430;28;20580;-46
2022/08/20 02:51:08;;;;;;;56.08;22.20;;;17.40;76.10;;;13.30;100.00;95743.56;4957805;28;20029;-46
2022/08/20 02:53:43;;;;;;;60.13;22.80;;;17.40;76.00;;;13.24;100.00;95735.81;4973767;28;20041;-48
2022/08/20 02:56:13;;;;;;;69.95;24.90;;;17.40;75.90;;;13.19;100.00;95736.63;4974151;28;20022;-47
2022/08/20 02:58:44;;;;;;;73.70;24.90;;;17.40;76.00;;;13.18;100.00;95740.38;4944995;28;20073;-46
2022/08/20 03:01:16;;;;;;;73.63;25.67;;;17.30;75.80;;;13.10;100.00;95733.75;4976416;28;20026;-46
2022/08/20 03:04:00;;;;;;;80.07;27.25;;;17.30;75.90;;;13.10;100.00;95736.44;4993333;28;20025;-50
2022/08/20 03:06:27;;;;;;;82.93;27.83;;;17.30;76.80;;;13.07;100.00;95734.31;4962405;28;20106;-51
2022/08/20 03:08:56;;;;;;;79.45;28.85;;;17.20;75.90;;;13.05;100.00;95733.00;4973611;28;20037;-46
2022/08/20 03:11:21;;;;;;;77.28;27.10;;;17.20;75.90;;;13.00;100.00;95733.78;4974102;28;20535;-46
2022/08/20 03:13:53;;;;;;;75.78;28.83;;;17.20;75.90;;;13.00;100.00;95741.03;4970932;28;20065;-45
2022/08/20 03:16:19;;;;;;;80.68;28.20;;;17.20;76.10;;;13.01;100.00;95723.94;4976427;28;20680;-49
2022/08/20 03:18:48;;;;;;;76.00;28.17;;;17.20;76.10;;;12.98;100.00;95729.81;4992230;28;20104;-48
2022/08/20 03:21:14;;;;;;;83.53;27.42;;;17.20;76.10;;;12.95;100.00;95726.63;4993190;28;20026;-49
2022/08/20 03:23:42;;;;;;;78.72;28.48;;;17.10;76.00;;;12.92;100.00;95729.03;4992484;28;20029;-48
2022/08/20 03:26:12;;;;;;;80.57;27.45;;;17.10;76.00;;;12.88;100.00;95725.31;4976130;28;20040;-47
2022/08/20 03:28:43;;;;;;;77.97;26.75;;;17.10;76.00;;;12.85;100.00;95732.03;4975759;28;20042;-49
2022/08/20 03:31:14;;;;;;;81.03;28.02;;;17.10;76.00;;;12.82;100.00;95724.56;4976052;28;20025;-46
2022/08/20 03:33:40;;;;;;;90.00;29.08;;;17.00;75.90;;;12.79;100.00;95721.63;4992369;28;20083;-48
2022/08/20 03:36:12;;;;;;;87.38;29.30;;;17.00;75.90;;;12.78;100.00;95720.00;4975807;28;20082;-46
2022/08/20 03:38:38;;;;;;;90.70;30.70;;;17.00;76.10;;;12.78;100.00;95712.00;4975382;28;20094;-48
2022/08/20 03:41:10;;;;;;;81.05;28.05;;;17.00;76.90;;;12.81;100.00;95714.91;4975517;28;20029;-46
2022/08/20 03:43:40;;;;;;;76.33;28.63;;;17.00;76.20;;;12.84;100.00;95714.38;4975236;28;20544;-46
2022/08/20 03:46:07;;;;;;;71.97;25.70;;;17.00;76.30;;;12.83;100.00;95711.97;4975522;28;20024;-46
2022/08/20 03:48:37;;;;;;;70.50;24.00;;;17.00;76.10;;;12.79;100.00;95726.97;4975127;28;20038;-50
2022/08/20 03:51:03;;;;;;;70.68;23.70;;;17.00;76.10;;;12.77;100.00;95723.78;4975369;28;20080;-46
2022/08/20 03:53:39;;;;;;;71.88;24.17;;;17.00;76.00;;;12.71;100.00;95721.09;4992257;28;20035;-46
2022/08/20 03:56:05;;;;;;;85.88;25.48;;;17.00;76.00;;;12.69;100.00;95723.28;4975393;28;20056;-46
2022/08/20 03:58:40;;;;;;;87.75;26.67;;;16.90;75.90;;;12.67;100.00;95725.41;4989443;28;20053;-46
2022/08/20 04:01:12;;;;;;;87.18;27.23;;;16.90;76.10;;;12.69;100.00;95730.47;4973215;28;20030;-46
2022/08/20 04:03:38;;;;;;;82.75;27.80;;;16.90;76.20;;;12.70;100.00;95732.88;4955706;28;20071;-46
2022/08/20 04:06:04;;;;;;;82.50;27.15;;;16.90;76.10;;;12.68;100.00;95736.91;4954857;28;20026;-46
2022/08/20 04:08:39;;;;;;;86.82;27.30;;;16.90;76.60;;;12.65;100.00;95738.25;4933292;29;20034;-47
2022/08/20 04:11:06;;;;;;;88.10;28.58;;;16.90;76.30;;;12.67;100.00;95736.09;4953334;28;20073;-46
2022/08/20 04:13:35;;;;;;;96.22;29.98;;;16.90;76.40;;;12.73;100.00;95734.22;4936080;28;20105;-45
2022/08/20 04:16:06;;;;;;;88.43;27.73;;;16.90;76.60;;;12.78;100.00;95741.41;4953428;28;20027;-46
2022/08/20 04:18:36;;;;;;;99.53;30.83;;;16.90;76.60;;;12.80;100.00;95737.38;4936922;28;20386;-47
2022/08/20 04:21:07;;;;;;;87.28;29.13;;;17.00;76.70;;;12.85;100.00;95733.88;4920282;28;20102;-46
2022/08/20 04:23:35;;;;;;;88.45;28.73;;;17.00;76.60;;;12.84;100.00;95748.31;4951700;28;20026;-46
2022/08/20 04:26:08;;;;;;;94.05;31.00;;;17.00;76.60;;;12.84;100.00;95738.41;4932745;29;20567;-46
2022/08/20 04:28:34;;;;;;;86.00;28.92;;;17.00;76.70;;;12.90;100.00;95742.66;4948137;28;20649;-47
2022/08/20 04:31:00;;;;;;;93.38;29.20;;;17.10;76.70;;;12.92;100.00;95745.88;4953280;28;20035;-46
2022/08/20 04:33:29;;;;;;;82.70;27.38;;;17.10;76.70;;;12.96;100.00;95744.25;4935230;28;20117;-46
2022/08/20 04:36:04;;;;;;;93.25;30.25;;;17.10;76.70;;;13.01;100.00;95753.34;4952748;28;20092;-46
2022/08/20 04:38:35;;;;;;;100.30;29.58;;;17.20;76.90;;;13.09;100.00;95750.06;4935926;28;20806;-47
2022/08/20 04:41:13;;;;;;;85.05;28.15;;;17.30;76.90;;;13.17;100.00;95752.19;4920102;28;20162;-47
2022/08/20 04:43:45;;;;;;;93.32;27.38;;;17.40;77.00;;;13.24;100.00;95751.88;4952940;28;20478;-46
2022/08/20 04:46:13;;;;;;;87.80;28.63;;;17.40;76.90;;;13.31;100.00;95750.50;4935544;28;20076;-46
2022/08/20 04:48:41;;;;;;;79.10;27.88;;;17.50;76.80;;;13.37;100.00;95748.59;4932606;29;20066;-47
2022/08/20 04:51:08;;;;;;;76.65;28.65;;;17.60;77.50;;;13.40;100.00;95746.16;4929604;28;20027;-49
2022/08/20 04:53:34;;;;;;;85.07;29.80;;;17.70;76.70;;;13.46;100.00;95743.47;4935420;28;20125;-46
2022/08/20 04:56:02;;;;;;;87.57;31.58;;;17.70;77.30;;;13.53;100.00;95743.94;4919902;28;20577;-46
2022/08/20 04:58:35;;;;;;;86.30;29.95;;;17.80;76.60;;;13.61;100.00;95746.03;4936244;28;20023;-46
2022/08/20 05:01:10;;;;;;;92.07;27.60;;;18.00;76.70;;;13.68;100.00;95743.81;4935568;28;20023;-46
2022/08/20 05:03:39;;;;;;;82.50;26.50;;;18.10;76.50;;;13.77;100.00;95744.81;4951934;28;20042;-47
2022/08/20 05:06:12;;;;;;;79.60;27.10;;;18.20;76.30;;;13.97;100.00;95743.84;4932414;29;20043;-49
2022/08/20 05:08:39;;;;;;;;;;;18.40;76.30;;;14.25;100.00;95746.78;4926155;29;20085;-48
2022/08/20 05:11:09;;;;;;;67.10;25.17;;;18.50;75.90;;;14.48;100.00;95747.91;4970293;28;20008;-46
2022/08/20 05:13:41;;;;;;;63.53;25.75;;;18.70;76.10;;;14.71;100.00;95754.38;4944779;28;20541;-46
2022/08/20 05:16:08;;;;;;;64.03;25.58;;;18.80;76.10;;;14.82;100.00;95755.84;4952678;28;20061;-46
2022/08/20 05:18:35;;;;;;;72.28;27.75;;;18.90;75.90;;;14.88;100.00;95759.25;4950856;28;20023;-47
2022/08/20 05:21:06;;;;;;;62.33;26.23;;;19.10;75.80;;;14.99;100.00;95761.53;4952423;28;20386;-46
2022/08/20 05:23:38;;;;;;;65.53;26.65;;;19.20;75.60;;;15.01;100.00;95761.22;4934641;28;20110;-46
2022/08/20 05:26:06;;;;;;;59.83;25.20;;;19.40;75.50;;;14.98;100.00;95768.00;4932376;29;20114;-46
2022/08/20 05:28:34;;;;;;;59.75;23.33;;;19.40;75.20;;;14.96;100.00;95772.03;4948616;28;20039;-48
2022/08/20 05:31:01;;;;;;;74.18;26.23;;;19.50;75.00;;;14.93;100.00;95770.72;4952394;28;20037;-47
2022/08/20 05:33:37;;;;;;;71.03;25.95;;;19.50;74.90;;;15.03;100.00;95775.94;4934478;28;20049;-46
2022/08/20 05:36:06;;;;;;;67.93;24.98;;;19.70;75.00;;;15.08;100.00;95775.09;4930711;28;20048;-48
2022/08/20 05:38:40;;;;;;;66.18;24.33;;;19.70;74.60;;;15.14;100.00;95782.00;4949527;28;20037;-52
2022/08/20 05:41:06;;;;;;;71.22;25.35;;;19.80;74.70;;;15.20;100.00;95780.06;4963448;28;20026;-48
2022/08/20 05:43:34;;;;;;;71.70;26.15;;;19.90;74.60;;;15.33;100.00;95787.38;4940674;28;20122;-50
2022/08/20 05:46:04;;;;;;;67.50;26.23;;;20.00;74.60;;;15.45;100.00;95778.91;4965738;28;20052;-51
2022/08/20 05:48:34;;;;;;;65.40;25.08;;;20.10;74.50;;;15.60;100.00;95783.25;4941880;28;20220;-49
2022/08/20 05:51:00;;;;;;;64.25;23.90;;;20.30;74.50;;;15.75;100.00;95785.72;4971101;28;20707;-50
2022/08/20 05:53:26;;;;;;;57.17;24.85;;;20.40;74.30;;;15.86;100.00;95789.06;4926912;28;20037;-52
2022/08/20 05:55:53;;;;;;;61.92;25.52;;;20.50;74.20;;;16.01;100.00;95796.06;4953139;28;20075;-48
2022/08/20 05:58:37;;;;;;;46.63;22.70;;;20.60;74.20;;;16.09;100.00;95796.19;4911675;28;20027;-46
2022/08/20 06:01:06;;;;;;;49.13;22.63;;;20.80;74.20;;;16.08;100.00;95791.13;4926667;29;20023;-49
2022/08/20 06:06:22;;;;;;;44.60;22.55;;;20.80;73.80;;;16.03;100.00;95791.22;4951861;29;20059;-47
2022/08/20 06:08:52;;;;;;;46.00;21.83;;;20.80;73.50;;;15.99;100.00;95790.22;4947164;28;20401;-49
2022/08/20 06:11:27;;;;;;;49.85;23.65;;;20.80;73.50;;;16.00;100.00;95797.16;4911988;28;20026;-46
2022/08/20 06:13:56;;;;;;;41.03;21.25;;;20.90;73.50;;;16.04;100.00;95788.22;4917336;29;20025;-47
2022/08/20 06:16:24;;;;;;;46.58;22.30;;;20.90;73.40;;;16.14;100.00;95790.75;4915705;29;20047;-47
2022/08/20 06:18:59;;;;;;;43.45;21.58;;;21.00;73.30;;;16.25;100.00;95786.00;4937163;28;20030;-46
2022/08/20 06:21:25;;;;;;;47.42;21.67;;;21.10;74.00;;;16.36;100.00;95792.00;4954688;28;20022;-47
2022/08/20 06:23:54;;;;;;;40.90;21.17;;;21.30;73.10;;;16.51;100.00;95791.69;4951681;28;20113;-46
2022/08/20 06:26:23;;;;;;;34.63;20.80;;;21.40;72.90;;;16.73;100.00;95796.41;4931539;29;20049;-49
2022/08/20 06:28:49;;;;;;;35.95;20.38;;;21.70;72.90;;;16.92;100.00;95792.84;4933580;29;20096;-46
2022/08/20 06:31:21;;;;;;;31.58;20.15;;;22.00;72.90;;;17.10;100.00;95794.63;4929339;29;20015;-48
2022/08/20 06:33:49;;;;;;;26.90;17.67;;;22.30;72.80;;;17.23;99.07;95796.50;4941917;29;20053;-49
2022/08/20 06:36:15;;;;;;;25.27;17.77;;;22.50;72.40;;;17.34;99.91;95791.72;4947419;29;20019;-49
2022/08/20 06:38:45;;;;;;;22.50;16.13;;;22.60;72.00;;;17.42;97.11;95792.88;4932010;29;20029;-47
2022/08/20 06:41:11;;;;;;;19.67;15.98;;;22.80;71.50;;;17.52;97.69;95792.69;4936479;29;20073;-47
2022/08/20 06:43:40;;;;;;;20.67;14.73;;;22.90;71.20;;;17.72;97.52;95789.53;4934062;29;20039;-45
2022/08/20 06:46:07;;;;;;;20.17;15.20;;;23.00;70.90;;;18.00;97.65;95792.94;4910227;28;20490;-48
2022/08/20 06:48:33;;;;;;;17.55;14.45;;;23.30;70.90;;;18.24;95.75;95803.41;4930203;29;20061;-47
2022/08/20 06:51:00;;;;;;;16.25;12.90;;;23.50;70.70;;;18.43;94.28;95797.00;4925369;28;20029;-47
2022/08/20 06:53:29;;;;;;;13.80;11.75;;;23.70;70.40;;;18.62;92.22;95802.19;4929608;28;20050;-47
2022/08/20 06:55:58;;;;;;;13.45;11.05;;;24.00;70.10;;;18.88;84.25;95807.72;4933393;28;20037;-48
2022/08/20 06:58:25;;;;;;;13.27;10.18;;;24.50;69.20;;;19.02;86.64;95804.91;4951616;28;20054;-47
2022/08/20 07:00:51;;;;;;;10.40;9.15;;;24.70;68.50;;;19.03;83.41;95804.59;4929954;28;20428;-47
2022/08/20 07:03:19;;;;;;;10.85;9.15;;;24.80;67.70;;;19.07;82.75;95800.16;4923959;29;20031;-47
2022/08/20 07:05:48;;;;;;;9.60;8.70;;;24.80;67.00;;;19.12;83.14;95800.03;4950946;28;20018;-47
2022/08/20 07:08:22;;;;;;;9.40;8.20;;;25.00;66.30;;;19.23;82.73;95807.81;4933694;28;20125;-48
2022/08/20 07:10:49;;;;;;;9.82;8.65;;;25.00;65.60;;;19.41;82.81;95798.66;4952541;28;20388;-47
2022/08/20 07:13:21;;;;;;;9.60;8.57;;;25.20;65.20;;;19.47;79.84;95797.38;4935866;28;20054;-47
2022/08/20 07:15:49;;;;;;;9.48;8.25;;;25.30;64.10;;;19.53;81.07;95803.44;4952993;28;20244;-47
2022/08/20 07:18:16;;;;;;;9.88;8.85;;;25.40;63.60;;;19.75;78.92;95802.53;4954306;28;20045;-47
2022/08/20 07:20:42;;;;;;;8.30;7.50;;;25.70;62.80;;;19.95;79.16;95806.50;4937137;28;20447;-48
2022/08/20 07:23:10;;;;;;;8.88;7.97;;;25.70;62.30;;;20.02;78.68;95806.81;4954003;28;20508;-47
2022/08/20 07:25:40;;;;;;;9.75;7.50;;;25.70;62.00;;;19.98;77.78;95813.97;4934140;29;20101;-46
2022/08/20 07:28:20;;;;;;;9.20;7.40;;;25.70;61.30;;;20.02;76.32;95804.91;4958913;28;20550;-50
2022/08/20 07:33:40;;;;;;;7.35;6.07;;;25.70;60.90;;;20.45;76.24;95808.66;4973172;28;20029;-47
2022/08/20 07:36:07;;;;;;;7.20;6.40;;;25.90;60.60;;;20.64;73.73;95802.91;4956988;28;20018;-47
2022/08/20 07:38:39;;;;;;;7.63;6.63;;;26.20;60.10;;;21.08;75.60;95804.31;4954711;28;20504;-50
2022/08/20 07:41:13;;;;;;;9.60;5.97;;;26.80;59.50;;;21.55;73.13;95801.53;4973150;28;20037;-47
2022/08/20 07:43:44;;;;;;;5.90;5.40;;;27.50;58.90;;;21.98;71.42;95802.34;4972740;28;20030;-47
2022/08/20 07:46:17;;;;;;;5.45;4.85;;;28.20;57.60;;;22.33;69.82;95806.34;4956104;28;20036;-47
2022/08/20 07:48:48;;;;;;;5.70;5.20;;;28.50;57.20;;;22.58;67.51;95817.28;4973031;28;20089;-47
2022/08/20 07:51:21;;;;;;;5.95;5.35;;;28.70;56.50;;;22.72;66.09;95800.66;4955323;28;20019;-47
2022/08/20 07:53:49;;;;;;;;;;;29.10;55.70;;;22.85;66.73;95805.00;4955856;28;20084;-48
2022/08/20 07:56:22;;;;;;;3.90;3.50;;;29.30;56.20;;;23.18;64.64;95804.13;4972693;28;19948;-48
2022/08/20 07:58:54;;;;;;;2.88;2.67;;;29.90;54.20;;;23.15;62.98;95812.97;4952601;28;20037;-47
2022/08/20 08:01:28;;;;;;;3.10;2.80;;;30.00;53.20;;;23.17;64.72;95813.41;4992150;28;20041;-47
2022/08/20 08:03:56;;;;;;;3.22;2.80;;;30.00;52.60;;;22.96;62.75;95811.59;4973857;28;20021;-47
2022/08/20 08:06:29;;;;;;;2.75;2.55;;;29.80;52.20;;;22.80;64.10;95808.72;4972742;28;20038;-47
2022/08/20 08:09:10;;;;;;;3.42;2.67;;;29.70;51.70;;;22.87;64.04;95808.94;4954035;28;20034;-49
2022/08/20 08:11:49;;;;;;;2.70;2.50;;;29.50;51.70;;;22.79;63.50;95806.34;4955493;28;20025;-47
2022/08/20 08:14:33;;;;;;;3.45;3.15;;;29.30;51.80;;;22.75;64.94;95810.84;4972285;28;20026;-47
2022/08/20 08:17:03;;;;;;;3.67;3.35;;;29.10;51.80;;;22.51;65.40;95812.38;4953558;28;20398;-47
2022/08/20 08:19:42;;;;;;;3.90;3.50;;;28.90;51.70;;;22.39;67.16;95813.13;4972556;28;20026;-47
2022/08/20 08:22:15;;;;;;;4.32;3.92;;;28.80;51.80;;;22.32;67.40;95812.13;4948436;28;20029;-48
2022/08/20 08:24:45;;;;;;;;;;;28.60;52.00;;;22.17;65.90;95811.59;4955045;28;20030;-47
2022/08/20 08:27:13;;;;;;;4.93;3.65;;;28.50;52.70;;;22.28;67.72;95814.72;4969716;28;19958;-47
2022/08/20 08:29:39;;;;;;;3.22;2.92;;;28.30;52.40;;;21.92;67.93;95812.59;4971165;28;20034;-47
2022/08/20 08:32:06;;;;;;;2.70;2.50;;;28.10;52.50;;;21.53;68.44;95811.09;4951488;28;20049;-46
2022/08/20 08:34:36;;;;;;;2.90;2.70;;;27.90;52.40;;;21.49;67.88;95819.09;4967351;28;20038;-47
2022/08/20 08:37:07;;;;;;;2.38;2.20;;;27.60;52.40;;;21.37;68.85;95811.69;4956385;28;20377;-47
2022/08/20 08:39:39;;;;;;;2.58;2.38;;;27.50;52.80;;;21.30;68.45;95818.72;4956674;28;20037;-49
2022/08/20 08:42:40;;;;;;;2.67;2.47;;;27.30;52.70;;;20.85;69.69;95814.63;4971214;28;20037;-47
2022/08/20 08:45:09;;;;;;;4.85;2.80;;;27.20;52.80;;;20.87;70.38;95812.41;4933782;28;20018;-47
2022/08/20 08:47:40;;;;;;;2.90;2.70;;;27.00;52.90;;;20.80;70.30;95817.50;4968556;28;20477;-47
2022/08/20 08:50:30;;;;;;;4.43;2.70;;;26.90;53.00;;;20.96;70.50;95817.75;4975798;28;20551;-46
2022/08/20 08:53:01;;;;;;;3.22;2.85;;;26.90;53.40;;;21.10;70.58;95817.53;4963191;28;20412;-48
2022/08/20 08:55:31;;;;;;;3.20;2.85;;;27.00;53.50;;;21.11;69.64;95819.13;4945570;28;20022;-47
2022/08/20 08:58:03;;;;;;;3.03;2.72;;;27.00;53.40;;;21.18;70.25;95814.78;4968182;28;20025;-46
2022/08/20 09:00:33;;;;;;;3.42;3.13;;;27.10;53.50;;;21.30;70.09;95810.59;4966202;28;20037;-48
2022/08/20 09:03:23;;;;;;;3.60;3.30;;;27.20;53.40;;;21.41;72.22;95807.22;4959214;28;20445;-47
2022/08/20 09:05:58;;;;;;;3.60;3.30;;;27.30;53.70;;;21.55;72.31;95809.66;4938384;28;20053;-49
2022/08/20 09:08:41;;;;;;;3.70;3.40;;;27.40;53.70;;;21.51;69.95;95807.94;4967510;28;20382;-50
2022/08/20 09:11:22;;;;;;;4.13;3.75;;;27.50;53.50;;;21.24;70.54;95809.97;4928988;28;20019;-49
2022/08/20 09:13:57;;;;;;;3.50;3.20;;;27.50;53.60;;;21.34;73.10;95816.94;4943446;28;20057;-47
2022/08/20 09:16:35;;;;;;;3.13;2.83;;;27.20;53.80;;;21.17;73.14;95815.13;4969560;28;20018;-51
2022/08/20 09:19:03;;;;;;;2.70;2.50;;;26.90;54.10;;;20.73;73.33;95815.28;4954096;28;20037;-49
2022/08/20 09:21:29;;;;;;;3.25;2.40;;;26.50;54.40;;;20.32;75.36;95816.63;4971891;28;20580;-51
2022/08/20 09:23:58;;;;;;;3.13;2.85;;;26.10;54.80;;;19.96;77.05;95822.41;4950657;28;20065;-47
2022/08/20 09:26:26;;;;;;;3.28;2.97;;;25.70;55.30;;;19.78;80.42;95826.22;4962997;28;20033;-46
2022/08/20 09:28:52;;;;;;;5.45;3.10;;;25.30;56.00;;;19.61;81.02;95827.75;4971450;28;20081;-47
2022/08/20 09:31:18;;;;;;;4.45;3.45;;;25.00;56.70;;;19.68;82.14;95835.44;4951100;28;20429;-47
2022/08/20 09:33:47;;;;;;;4.35;3.38;;;24.70;57.50;;;19.46;81.99;95825.53;4972247;28;20026;-46
2022/08/20 09:36:13;;;;;;;3.53;3.22;;;24.40;58.20;;;19.27;83.52;95824.97;4990830;28;20473;-47
2022/08/20 09:38:39;;;;;;;3.55;3.25;;;24.10;58.60;;;19.22;84.11;95830.53;4990834;28;20044;-46
2022/08/20 09:41:12;;;;;;;8.43;3.58;;;23.90;59.20;;;19.07;85.56;95831.75;4990646;28;20022;-47
2022/08/20 09:43:41;;;;;;;6.93;3.97;;;23.70;59.70;;;19.01;86.88;95827.59;4990183;28;20033;-46
2022/08/20 09:46:07;;;;;;;16.15;4.05;;;23.60;60.40;;;18.97;87.79;95830.13;4989547;28;20028;-47
2022/08/20 09:48:35;;;;;;;4.97;3.55;;;23.60;60.80;;;18.86;88.52;95831.50;4990476;28;20030;-47
2022/08/20 09:51:02;;;;;;;4.40;3.30;;;23.60;62.30;;;18.92;88.83;95827.56;4990682;28;20060;-46
2022/08/20 09:53:30;;;;;;;4.72;3.97;;;23.60;61.70;;;19.00;89.81;95836.81;4972010;28;20079;-46
2022/08/20 09:55:57;;;;;;;5.38;4.18;;;23.60;62.30;;;18.97;88.95;95830.13;4972553;28;20029;-46
2022/08/20 09:58:33;;;;;;;7.55;3.97;;;23.70;62.50;;;18.81;88.61;95828.97;4988834;28;20079;-46
2022/08/20 10:01:19;;;;;;;4.63;3.85;;;23.70;62.60;;;18.60;88.30;95834.06;4953707;28;20029;-51
2022/08/20 10:03:48;;;;;;;4.00;3.60;;;23.50;62.80;;;18.63;89.30;95831.53;4970765;28;20113;-47
2022/08/20 10:06:20;;;;;;;8.15;4.13;;;23.40;62.90;;;18.57;89.87;95831.97;4921895;29;20413;-46
2022/08/20 10:08:49;;;;;;;8.77;5.20;;;23.30;63.30;;;18.57;89.52;95832.78;4931701;29;20038;-46
2022/08/20 10:11:16;;;;;;;5.28;4.38;;;23.20;63.70;;;18.63;91.03;95828.84;4934446;29;20053;-46
2022/08/20 10:13:42;;;;;;;4.55;4.10;;;23.00;64.10;;;18.59;91.14;95829.78;4951207;29;20069;-47
2022/08/20 10:16:08;;;;;;;6.03;4.72;;;22.90;64.50;;;18.56;91.69;95830.41;4951857;29;20524;-47
2022/08/20 10:18:36;;;;;;;6.07;4.95;;;22.90;65.00;;;18.49;91.98;95830.84;4934530;29;20501;-46
2022/08/20 10:21:10;;;;;;;11.80;4.57;;;22.80;65.40;;;18.41;92.57;95836.97;4951977;29;20054;-46
2022/08/20 10:23:40;;;;;;;9.13;4.30;;;22.70;65.80;;;18.17;92.51;95837.28;4933466;29;20081;-47
2022/08/20 10:26:11;;;;;;;9.38;3.20;;;22.60;65.60;;;17.87;92.07;95836.91;4934403;29;20280;-46
2022/08/20 10:28:38;;;;;;;6.45;3.25;;;22.60;65.70;;;17.91;93.77;95837.09;4937983;28;20557;-51
2022/08/20 10:31:12;;;;;;;4.30;2.88;;;22.50;65.80;;;17.99;94.13;95828.28;4938203;28;20500;-46